sensor_id;sensor_type;location;lat;lon;timestamp;pressure;altitude;pressure_sealevel;temperature;humidity
12951;BME280;6540;50.858;7.232;2024-01-30T00:00:41;51935.25;;;-142.34;30.24
12951;BME280;6540;50.858;7.232;2024-01-30T00:03:06;51907.00;;;-142.34;29.52
12951;BME280;6540;50.858;7.232;2024-01-30T00:05:32;51949.34;;;-142.34;29.95
12951;BME280;6540;50.858;7.232;2024-01-30T00:07:57;51949.34;;;-142.34;31.15
12951;BME280;6540;50.858;7.232;2024-01-30T00:10:22;51951.38;;;-142.34;31.14
12951;BME280;6540;50.858;7.232;2024-01-30T00:12:47;51943.31;;;-142.34;30.46
12951;BME280;6540;50.858;7.232;2024-01-30T00:15:13;51931.19;;;-142.34;30.29
12951;BME280;6540;50.858;7.232;2024-01-30T00:17:38;51965.50;;;-142.34;29.97
12951;BME280;6540;50.858;7.232;2024-01-30T00:20:04;51947.34;;;-142.34;30.97
12951;BME280;6540;50.858;7.232;2024-01-30T00:22:34;51919.09;;;-142.34;30.09
12951;BME280;6540;50.858;7.232;2024-01-30T00:24:59;51963.47;;;-142.34;29.95
12951;BME280;6540;50.858;7.232;2024-01-30T00:27:25;51927.16;;;-142.34;30.82
12951;BME280;6540;50.858;7.232;2024-01-30T00:29:51;51951.38;;;-142.34;31.25
12951;BME280;6540;50.858;7.232;2024-01-30T00:32:16;51904.97;;;-142.34;29.82
12951;BME280;6540;50.858;7.232;2024-01-30T00:34:42;51931.19;;;-142.34;30.78
12951;BME280;6540;50.858;7.232;2024-01-30T00:37:07;51955.41;;;-142.34;30.26
12951;BME280;6540;50.858;7.232;2024-01-30T00:39:32;51971.53;;;-142.34;32.64
12951;BME280;6540;50.858;7.232;2024-01-30T00:41:58;51909.00;;;-142.34;32.23
12951;BME280;6540;50.858;7.232;2024-01-30T00:44:23;51943.31;;;-142.34;31.86
12951;BME280;6540;50.858;7.232;2024-01-30T00:46:49;51927.16;;;-142.34;30.68
12951;BME280;6540;50.858;7.232;2024-01-30T00:49:14;51931.19;;;-142.34;29.64
12951;BME280;6540;50.858;7.232;2024-01-30T00:51:40;51947.34;;;-142.34;30.71
12951;BME280;6540;50.858;7.232;2024-01-30T00:54:05;51955.41;;;-142.34;30.50
12951;BME280;6540;50.858;7.232;2024-01-30T00:56:31;51931.19;;;-142.34;30.95
12951;BME280;6540;50.858;7.232;2024-01-30T00:58:56;51973.56;;;-142.34;30.43
12951;BME280;6540;50.858;7.232;2024-01-30T01:01:22;51983.66;;;-142.34;30.69
12951;BME280;6540;50.858;7.232;2024-01-30T01:03:47;51959.44;;;-142.34;31.18
12951;BME280;6540;50.858;7.232;2024-01-30T01:06:13;51975.59;;;-142.34;31.17
12951;BME280;6540;50.858;7.232;2024-01-30T01:08:39;51983.66;;;-142.34;30.44
12951;BME280;6540;50.858;7.232;2024-01-30T01:11:04;51927.16;;;-142.34;31.70
12951;BME280;6540;50.858;7.232;2024-01-30T01:13:30;51981.63;;;-142.34;29.30
12951;BME280;6540;50.858;7.232;2024-01-30T01:15:55;51943.31;;;-142.34;31.58
12951;BME280;6540;50.858;7.232;2024-01-30T01:18:20;51949.34;;;-142.34;30.38
12951;BME280;6540;50.858;7.232;2024-01-30T01:20:46;51923.13;;;-142.34;30.89
12951;BME280;6540;50.858;7.232;2024-01-30T01:23:11;51951.38;;;-142.34;31.23
12951;BME280;6540;50.858;7.232;2024-01-30T01:25:36;51963.47;;;-142.34;29.53
12951;BME280;6540;50.858;7.232;2024-01-30T01:28:02;51919.09;;;-142.34;30.93
12951;BME280;6540;50.858;7.232;2024-01-30T01:30:27;51941.28;;;-142.34;30.19
12951;BME280;6540;50.858;7.232;2024-01-30T01:32:54;51955.41;;;-142.34;29.11
12951;BME280;6540;50.858;7.232;2024-01-30T01:35:26;51935.25;;;-142.34;30.67
12951;BME280;6540;50.858;7.232;2024-01-30T01:37:54;51961.47;;;-142.34;29.61
12951;BME280;6540;50.858;7.232;2024-01-30T01:40:23;51971.53;;;-142.34;30.58
12951;BME280;6540;50.858;7.232;2024-01-30T01:42:50;51907.00;;;-142.34;30.56
12951;BME280;6540;50.858;7.232;2024-01-30T01:45:17;51915.06;;;-142.34;29.58
12951;BME280;6540;50.858;7.232;2024-01-30T01:47:42;51915.06;;;-142.34;29.46
12951;BME280;6540;50.858;7.232;2024-01-30T01:50:11;51927.16;;;-142.34;29.25
12951;BME280;6540;50.858;7.232;2024-01-30T01:52:37;51961.47;;;-142.34;30.47
12951;BME280;6540;50.858;7.232;2024-01-30T01:55:04;51945.31;;;-142.34;30.30
12951;BME280;6540;50.858;7.232;2024-01-30T01:57:29;51983.66;;;-142.34;30.49
12951;BME280;6540;50.858;7.232;2024-01-30T01:59:55;51963.47;;;-142.34;30.69
12951;BME280;6540;50.858;7.232;2024-01-30T02:02:20;51943.31;;;-142.34;30.99
12951;BME280;6540;50.858;7.232;2024-01-30T02:04:47;51977.59;;;-142.34;30.04
12951;BME280;6540;50.858;7.232;2024-01-30T02:07:13;51939.28;;;-142.34;30.58
12951;BME280;6540;50.858;7.232;2024-01-30T02:09:38;51965.50;;;-142.34;30.73
12951;BME280;6540;50.858;7.232;2024-01-30T02:12:04;51957.44;;;-142.34;31.33
12951;BME280;6540;50.858;7.232;2024-01-30T02:14:29;51919.09;;;-142.34;30.34
12951;BME280;6540;50.858;7.232;2024-01-30T02:16:54;51985.66;;;-142.34;30.86
12951;BME280;6540;50.858;7.232;2024-01-30T02:19:20;51939.28;;;-142.34;31.13
12951;BME280;6540;50.858;7.232;2024-01-30T02:21:46;51985.66;;;-142.34;31.09
12951;BME280;6540;50.858;7.232;2024-01-30T02:24:11;51963.47;;;-142.34;32.52
12951;BME280;6540;50.858;7.232;2024-01-30T02:26:36;51957.44;;;-142.34;31.04
12951;BME280;6540;50.858;7.232;2024-01-30T02:29:02;51929.19;;;-142.34;32.48
12951;BME280;6540;50.858;7.232;2024-01-30T02:31:27;51971.53;;;-142.34;32.13
12951;BME280;6540;50.858;7.232;2024-01-30T02:33:52;51971.53;;;-142.34;31.77
12951;BME280;6540;50.858;7.232;2024-01-30T02:36:18;51947.34;;;-142.34;31.19
12951;BME280;6540;50.858;7.232;2024-01-30T02:38:46;51959.44;;;-142.34;30.31
12951;BME280;6540;50.858;7.232;2024-01-30T02:41:15;51953.41;;;-142.34;30.20
12951;BME280;6540;50.858;7.232;2024-01-30T02:43:40;51975.59;;;-142.34;31.13
12951;BME280;6540;50.858;7.232;2024-01-30T02:46:08;51945.31;;;-142.34;31.94
12951;BME280;6540;50.858;7.232;2024-01-30T02:48:36;51933.22;;;-142.34;31.44
12951;BME280;6540;50.858;7.232;2024-01-30T02:51:03;51935.25;;;-142.34;30.11
12951;BME280;6540;50.858;7.232;2024-01-30T02:53:28;51957.44;;;-142.34;29.85
12951;BME280;6540;50.858;7.232;2024-01-30T02:55:54;51973.56;;;-142.34;29.31
12951;BME280;6540;50.858;7.232;2024-01-30T02:58:19;51935.25;;;-142.34;31.31
12951;BME280;6540;50.858;7.232;2024-01-30T03:00:44;51983.66;;;-142.34;30.31
12951;BME280;6540;50.858;7.232;2024-01-30T03:03:10;51955.41;;;-142.34;29.30
12951;BME280;6540;50.858;7.232;2024-01-30T03:05:35;51975.59;;;-142.34;30.25
12951;BME280;6540;50.858;7.232;2024-01-30T03:08:01;51979.63;;;-142.34;31.52
12951;BME280;6540;50.858;7.232;2024-01-30T03:10:26;51947.34;;;-142.34;30.47
12951;BME280;6540;50.858;7.232;2024-01-30T03:12:51;51963.47;;;-142.34;29.29
12951;BME280;6540;50.858;7.232;2024-01-30T03:15:16;51971.53;;;-142.34;30.17
12951;BME280;6540;50.858;7.232;2024-01-30T03:17:42;51969.53;;;-142.34;29.98
12951;BME280;6540;50.858;7.232;2024-01-30T03:20:07;51971.53;;;-142.34;30.03
12951;BME280;6540;50.858;7.232;2024-01-30T03:22:34;51971.53;;;-142.34;30.63
12951;BME280;6540;50.858;7.232;2024-01-30T03:24:59;51955.41;;;-142.34;30.19
12951;BME280;6540;50.858;7.232;2024-01-30T03:27:24;51973.56;;;-142.34;29.14
12951;BME280;6540;50.858;7.232;2024-01-30T03:29:49;51947.34;;;-142.34;29.31
12951;BME280;6540;50.858;7.232;2024-01-30T03:32:15;51957.44;;;-142.34;30.69
12951;BME280;6540;50.858;7.232;2024-01-30T03:34:40;51951.38;;;-142.34;29.76
12951;BME280;6540;50.858;7.232;2024-01-30T03:37:05;51953.41;;;-142.34;30.29
12951;BME280;6540;50.858;7.232;2024-01-30T03:39:31;51945.31;;;-142.34;29.82
12951;BME280;6540;50.858;7.232;2024-01-30T03:41:56;51959.44;;;-142.34;29.60
12951;BME280;6540;50.858;7.232;2024-01-30T03:44:21;51957.44;;;-142.34;30.47
12951;BME280;6540;50.858;7.232;2024-01-30T03:46:47;51975.59;;;-142.34;29.38
12951;BME280;6540;50.858;7.232;2024-01-30T03:49:12;51955.41;;;-142.34;29.99
12951;BME280;6540;50.858;7.232;2024-01-30T03:51:37;51959.44;;;-142.34;28.80
12951;BME280;6540;50.858;7.232;2024-01-30T03:54:03;51987.69;;;-142.34;29.68
12951;BME280;6540;50.858;7.232;2024-01-30T03:56:28;51951.38;;;-142.34;30.90
12951;BME280;6540;50.858;7.232;2024-01-30T03:58:53;51947.34;;;-142.34;30.38
12951;BME280;6540;50.858;7.232;2024-01-30T04:01:19;51971.53;;;-142.34;30.36
12951;BME280;6540;50.858;7.232;2024-01-30T04:03:44;51997.78;;;-142.34;30.17
12951;BME280;6540;50.858;7.232;2024-01-30T04:06:10;51959.44;;;-142.34;30.58
12951;BME280;6540;50.858;7.232;2024-01-30T04:08:35;51949.34;;;-142.34;32.28
12951;BME280;6540;50.858;7.232;2024-01-30T04:11:04;51957.44;;;-142.34;30.60
12951;BME280;6540;50.858;7.232;2024-01-30T04:13:33;51975.59;;;-142.34;30.82
12951;BME280;6540;50.858;7.232;2024-01-30T04:16:02;51963.47;;;-142.34;29.07
12951;BME280;6540;50.858;7.232;2024-01-30T04:18:28;51963.47;;;-142.34;28.86
12951;BME280;6540;50.858;7.232;2024-01-30T04:20:54;51959.44;;;-142.34;30.81
12951;BME280;6540;50.858;7.232;2024-01-30T04:23:19;51999.78;;;-142.34;29.03
12951;BME280;6540;50.858;7.232;2024-01-30T04:25:44;51971.53;;;-142.34;32.20
12951;BME280;6540;50.858;7.232;2024-01-30T04:28:10;51949.34;;;-142.34;31.83
12951;BME280;6540;50.858;7.232;2024-01-30T04:30:37;51939.28;;;-142.34;31.16
12951;BME280;6540;50.858;7.232;2024-01-30T04:33:03;51931.19;;;-142.34;30.24
12951;BME280;6540;50.858;7.232;2024-01-30T04:35:28;51955.41;;;-142.34;28.96
12951;BME280;6540;50.858;7.232;2024-01-30T04:37:53;51949.34;;;-142.34;30.09
12951;BME280;6540;50.858;7.232;2024-01-30T04:40:20;51927.16;;;-142.34;29.66
12951;BME280;6540;50.858;7.232;2024-01-30T04:42:46;51945.31;;;-142.34;29.90
12951;BME280;6540;50.858;7.232;2024-01-30T04:45:12;51999.78;;;-142.34;28.83
12951;BME280;6540;50.858;7.232;2024-01-30T04:47:37;51963.47;;;-142.34;31.01
12951;BME280;6540;50.858;7.232;2024-01-30T04:50:07;51971.53;;;-142.34;28.91
12951;BME280;6540;50.858;7.232;2024-01-30T04:52:33;51955.41;;;-142.34;30.46
12951;BME280;6540;50.858;7.232;2024-01-30T04:54:59;51949.34;;;-142.34;31.60
12951;BME280;6540;50.858;7.232;2024-01-30T04:57:27;51963.47;;;-142.34;29.89
12951;BME280;6540;50.858;7.232;2024-01-30T04:59:53;51965.50;;;-142.34;28.83
12951;BME280;6540;50.858;7.232;2024-01-30T05:02:18;51951.38;;;-142.34;29.97
12951;BME280;6540;50.858;7.232;2024-01-30T05:04:43;51931.19;;;-142.34;29.53
12951;BME280;6540;50.858;7.232;2024-01-30T05:07:09;51975.59;;;-142.34;30.36
12951;BME280;6540;50.858;7.232;2024-01-30T05:09:34;51941.28;;;-142.34;31.26
12951;BME280;6540;50.858;7.232;2024-01-30T05:12:00;51955.41;;;-142.34;31.11
12951;BME280;6540;50.858;7.232;2024-01-30T05:14:25;51991.72;;;-142.34;30.21
12951;BME280;6540;50.858;7.232;2024-01-30T05:16:50;51923.13;;;-142.34;29.81
12951;BME280;6540;50.858;7.232;2024-01-30T05:19:16;51951.38;;;-142.34;29.31
12951;BME280;6540;50.858;7.232;2024-01-30T05:21:42;52003.81;;;-142.34;28.60
12951;BME280;6540;50.858;7.232;2024-01-30T05:24:07;51967.50;;;-142.34;28.75
12951;BME280;6540;50.858;7.232;2024-01-30T05:26:35;51931.19;;;-142.34;29.12
12951;BME280;6540;50.858;7.232;2024-01-30T05:29:00;51959.44;;;-142.34;30.47
12951;BME280;6540;50.858;7.232;2024-01-30T05:31:25;51939.28;;;-142.34;31.70
12951;BME280;6540;50.858;7.232;2024-01-30T05:33:52;51961.47;;;-142.34;31.09
12951;BME280;6540;50.858;7.232;2024-01-30T05:36:17;51973.56;;;-142.34;30.50
12951;BME280;6540;50.858;7.232;2024-01-30T05:38:43;51943.31;;;-142.34;28.66
12951;BME280;6540;50.858;7.232;2024-01-30T05:41:08;51939.28;;;-142.34;29.70
12951;BME280;6540;50.858;7.232;2024-01-30T05:43:34;51951.38;;;-142.34;28.95
12951;BME280;6540;50.858;7.232;2024-01-30T05:46:00;51951.38;;;-142.34;29.38
12951;BME280;6540;50.858;7.232;2024-01-30T05:48:25;51959.44;;;-142.34;28.55
12951;BME280;6540;50.858;7.232;2024-01-30T05:50:51;51971.53;;;-142.34;29.24
12951;BME280;6540;50.858;7.232;2024-01-30T05:53:16;51937.25;;;-142.34;31.77
12951;BME280;6540;50.858;7.232;2024-01-30T05:55:42;51937.25;;;-142.34;29.34
12951;BME280;6540;50.858;7.232;2024-01-30T05:58:07;51965.50;;;-142.34;29.14
12951;BME280;6540;50.858;7.232;2024-01-30T06:00:32;51935.25;;;-142.34;31.00
12951;BME280;6540;50.858;7.232;2024-01-30T06:02:58;51963.47;;;-142.34;30.48
12951;BME280;6540;50.858;7.232;2024-01-30T06:05:23;51943.31;;;-142.34;32.41
12951;BME280;6540;50.858;7.232;2024-01-30T06:07:48;51963.47;;;-142.34;29.65
12951;BME280;6540;50.858;7.232;2024-01-30T06:10:14;51959.44;;;-142.34;30.26
12951;BME280;6540;50.858;7.232;2024-01-30T06:12:39;51983.66;;;-142.34;30.21
12951;BME280;6540;50.858;7.232;2024-01-30T06:15:05;51981.63;;;-142.34;29.66
12951;BME280;6540;50.858;7.232;2024-01-30T06:17:31;51975.59;;;-142.34;30.58
12951;BME280;6540;50.858;7.232;2024-01-30T06:19:57;51953.41;;;-142.34;31.14
12951;BME280;6540;50.858;7.232;2024-01-30T06:22:23;51987.69;;;-142.34;30.67
12951;BME280;6540;50.858;7.232;2024-01-30T06:24:48;51985.66;;;-142.34;30.69
12951;BME280;6540;50.858;7.232;2024-01-30T06:27:14;51955.41;;;-142.34;31.51
12951;BME280;6540;50.858;7.232;2024-01-30T06:29:40;51989.69;;;-142.34;30.55
12951;BME280;6540;50.858;7.232;2024-01-30T06:32:06;51963.47;;;-142.34;29.85
12951;BME280;6540;50.858;7.232;2024-01-30T06:34:31;51973.56;;;-142.34;29.82
12951;BME280;6540;50.858;7.232;2024-01-30T06:36:56;51963.47;;;-142.34;30.81
12951;BME280;6540;50.858;7.232;2024-01-30T06:39:22;51967.50;;;-142.34;29.83
12951;BME280;6540;50.858;7.232;2024-01-30T06:41:48;51935.25;;;-142.34;30.63
12951;BME280;6540;50.858;7.232;2024-01-30T06:44:13;51959.44;;;-142.34;30.75
12951;BME280;6540;50.858;7.232;2024-01-30T06:46:39;51979.63;;;-142.34;29.49
12951;BME280;6540;50.858;7.232;2024-01-30T06:49:04;51995.75;;;-142.34;30.54
12951;BME280;6540;50.858;7.232;2024-01-30T06:51:30;51979.63;;;-142.34;30.69
12951;BME280;6540;50.858;7.232;2024-01-30T06:53:55;51943.31;;;-142.34;30.60
12951;BME280;6540;50.858;7.232;2024-01-30T06:56:21;51951.38;;;-142.34;30.87
12951;BME280;6540;50.858;7.232;2024-01-30T06:58:50;51919.09;;;-142.34;31.21
12951;BME280;6540;50.858;7.232;2024-01-30T07:01:15;51991.72;;;-142.34;31.57
12951;BME280;6540;50.858;7.232;2024-01-30T07:03:41;51963.47;;;-142.34;29.87
12951;BME280;6540;50.858;7.232;2024-01-30T07:06:07;51963.47;;;-142.34;30.06
12951;BME280;6540;50.858;7.232;2024-01-30T07:08:33;51951.38;;;-142.34;28.54
12951;BME280;6540;50.858;7.232;2024-01-30T07:10:58;51939.28;;;-142.34;31.22
12951;BME280;6540;50.858;7.232;2024-01-30T07:13:24;51965.50;;;-142.34;30.05
12951;BME280;6540;50.858;7.232;2024-01-30T07:15:50;51951.38;;;-142.34;29.82
12951;BME280;6540;50.858;7.232;2024-01-30T07:18:15;51973.56;;;-142.34;30.08
12951;BME280;6540;50.858;7.232;2024-01-30T07:20:40;51939.28;;;-142.34;31.12
12951;BME280;6540;50.858;7.232;2024-01-30T07:23:14;51983.66;;;-142.34;30.58
12951;BME280;6540;50.858;7.232;2024-01-30T07:25:43;51993.75;;;-142.34;30.35
12951;BME280;6540;50.858;7.232;2024-01-30T07:28:09;51973.56;;;-142.34;30.10
12951;BME280;6540;50.858;7.232;2024-01-30T07:30:38;51949.34;;;-142.34;31.16
12951;BME280;6540;50.858;7.232;2024-01-30T07:33:04;51991.72;;;-142.34;29.58
12951;BME280;6540;50.858;7.232;2024-01-30T07:35:29;51993.75;;;-142.34;29.07
12951;BME280;6540;50.858;7.232;2024-01-30T07:37:55;52028.03;;;-142.34;29.38
12951;BME280;6540;50.858;7.232;2024-01-30T07:40:20;51959.44;;;-142.34;28.36
12951;BME280;6540;50.858;7.232;2024-01-30T07:42:48;51937.25;;;-142.34;31.18
12951;BME280;6540;50.858;7.232;2024-01-30T07:45:13;51975.59;;;-142.34;29.63
12951;BME280;6540;50.858;7.232;2024-01-30T07:47:39;51975.59;;;-142.34;29.27
12951;BME280;6540;50.858;7.232;2024-01-30T07:50:05;51939.28;;;-142.34;30.14
12951;BME280;6540;50.858;7.232;2024-01-30T07:52:30;51977.59;;;-142.34;29.77
12951;BME280;6540;50.858;7.232;2024-01-30T07:54:55;51975.59;;;-142.34;28.59
12951;BME280;6540;50.858;7.232;2024-01-30T07:57:22;51955.41;;;-142.34;29.09
12951;BME280;6540;50.858;7.232;2024-01-30T07:59:47;51985.66;;;-142.34;31.74
12951;BME280;6540;50.858;7.232;2024-01-30T08:02:12;51975.59;;;-142.34;31.74
12951;BME280;6540;50.858;7.232;2024-01-30T08:04:38;51935.25;;;-142.34;29.60
12951;BME280;6540;50.858;7.232;2024-01-30T08:07:06;51923.13;;;-142.34;28.66
12951;BME280;6540;50.858;7.232;2024-01-30T08:09:31;51959.44;;;-142.34;28.68
12951;BME280;6540;50.858;7.232;2024-01-30T08:11:57;51971.53;;;-142.34;29.73
12951;BME280;6540;50.858;7.232;2024-01-30T08:14:22;51983.66;;;-142.34;31.50
12951;BME280;6540;50.858;7.232;2024-01-30T08:16:47;51957.44;;;-142.34;29.87
12951;BME280;6540;50.858;7.232;2024-01-30T08:19:14;51927.16;;;-142.34;29.33
12951;BME280;6540;50.858;7.232;2024-01-30T08:21:40;51983.66;;;-142.34;31.77
12951;BME280;6540;50.858;7.232;2024-01-30T08:24:06;51977.59;;;-142.34;30.25
12951;BME280;6540;50.858;7.232;2024-01-30T08:26:32;51963.47;;;-142.34;30.12
12951;BME280;6540;50.858;7.232;2024-01-30T08:28:58;51981.63;;;-142.34;29.34
12951;BME280;6540;50.858;7.232;2024-01-30T08:31:23;51919.09;;;-142.34;28.70
12951;BME280;6540;50.858;7.232;2024-01-30T08:33:48;51985.66;;;-142.34;28.70
12951;BME280;6540;50.858;7.232;2024-01-30T08:36:15;51945.31;;;-142.34;31.03
12951;BME280;6540;50.858;7.232;2024-01-30T08:38:40;51955.41;;;-142.34;29.79
12951;BME280;6540;50.858;7.232;2024-01-30T08:41:07;51963.47;;;-142.34;29.65
12951;BME280;6540;50.858;7.232;2024-01-30T08:43:32;51967.50;;;-142.34;31.30
12951;BME280;6540;50.858;7.232;2024-01-30T08:46:01;51937.25;;;-142.34;31.13
12951;BME280;6540;50.858;7.232;2024-01-30T08:48:26;51957.44;;;-142.34;30.91
12951;BME280;6540;50.858;7.232;2024-01-30T08:50:52;51941.28;;;-142.34;30.79
12951;BME280;6540;50.858;7.232;2024-01-30T08:53:17;51963.47;;;-142.34;29.90
12951;BME280;6540;50.858;7.232;2024-01-30T08:55:43;51941.28;;;-142.34;29.39
12951;BME280;6540;50.858;7.232;2024-01-30T08:58:09;51959.44;;;-142.34;29.33
12951;BME280;6540;50.858;7.232;2024-01-30T09:00:34;51947.34;;;-142.34;28.86
12951;BME280;6540;50.858;7.232;2024-01-30T09:03:00;51939.28;;;-142.34;28.62
12951;BME280;6540;50.858;7.232;2024-01-30T09:05:25;51911.03;;;-142.34;28.70
12951;BME280;6540;50.858;7.232;2024-01-30T09:07:50;51909.00;;;-142.34;29.08
12951;BME280;6540;50.858;7.232;2024-01-30T09:10:19;51931.19;;;-142.34;29.73
12951;BME280;6540;50.858;7.232;2024-01-30T09:12:45;51967.50;;;-142.34;31.43
12951;BME280;6540;50.858;7.232;2024-01-30T09:15:11;51931.19;;;-142.34;29.71
12951;BME280;6540;50.858;7.232;2024-01-30T09:17:36;51945.31;;;-142.34;28.71
12951;BME280;6540;50.858;7.232;2024-01-30T09:20:01;51953.41;;;-142.34;28.78
12951;BME280;6540;50.858;7.232;2024-01-30T09:22:27;51987.69;;;-142.34;30.01
12951;BME280;6540;50.858;7.232;2024-01-30T09:24:52;51923.13;;;-142.34;29.02
12951;BME280;6540;50.858;7.232;2024-01-30T09:27:18;51963.47;;;-142.34;29.79
12951;BME280;6540;50.858;7.232;2024-01-30T09:29:43;51961.47;;;-142.34;28.76
12951;BME280;6540;50.858;7.232;2024-01-30T09:32:09;51953.41;;;-142.34;28.94
12951;BME280;6540;50.858;7.232;2024-01-30T09:34:34;51939.28;;;-142.34;29.57
12951;BME280;6540;50.858;7.232;2024-01-30T09:36:59;51925.16;;;-142.34;29.41
12951;BME280;6540;50.858;7.232;2024-01-30T09:39:25;51939.28;;;-142.34;29.87
12951;BME280;6540;50.858;7.232;2024-01-30T09:44:54;51955.41;;;-142.34;29.41
12951;BME280;6540;50.858;7.232;2024-01-30T09:47:19;51961.47;;;-142.34;28.58
12951;BME280;6540;50.858;7.232;2024-01-30T09:49:45;51947.34;;;-142.34;29.34
12951;BME280;6540;50.858;7.232;2024-01-30T09:52:11;51915.06;;;-142.34;30.50
12951;BME280;6540;50.858;7.232;2024-01-30T09:54:38;51886.81;;;-142.34;30.83
12951;BME280;6540;50.858;7.232;2024-01-30T09:57:04;51909.00;;;-142.34;29.73
12951;BME280;6540;50.858;7.232;2024-01-30T09:59:30;51927.16;;;-142.34;30.42
12951;BME280;6540;50.858;7.232;2024-01-30T10:01:55;51907.00;;;-142.34;29.78
12951;BME280;6540;50.858;7.232;2024-01-30T10:04:22;51941.28;;;-142.34;31.21
12951;BME280;6540;50.858;7.232;2024-01-30T10:06:47;51907.00;;;-142.34;29.57
12951;BME280;6540;50.858;7.232;2024-01-30T10:09:12;51904.97;;;-142.34;30.72
12951;BME280;6540;50.858;7.232;2024-01-30T10:11:39;51919.09;;;-142.34;30.55
12951;BME280;6540;50.858;7.232;2024-01-30T10:14:04;51927.16;;;-142.34;30.36
12951;BME280;6540;50.858;7.232;2024-01-30T10:16:29;51919.09;;;-142.34;29.73
12951;BME280;6540;50.858;7.232;2024-01-30T10:18:55;51896.91;;;-142.34;28.19
12951;BME280;6540;50.858;7.232;2024-01-30T10:21:21;51911.03;;;-142.34;29.39
12951;BME280;6540;50.858;7.232;2024-01-30T10:23:46;51890.84;;;-142.34;28.98
12951;BME280;6540;50.858;7.232;2024-01-30T10:26:12;51870.69;;;-142.34;28.04
12951;BME280;6540;50.858;7.232;2024-01-30T10:28:38;51907.00;;;-142.34;29.04
12951;BME280;6540;50.858;7.232;2024-01-30T10:31:03;51858.56;;;-142.34;30.10
12951;BME280;6540;50.858;7.232;2024-01-30T10:33:29;51864.63;;;-142.34;29.09
12951;BME280;6540;50.858;7.232;2024-01-30T10:36:01;51900.94;;;-142.34;29.66
12951;BME280;6540;50.858;7.232;2024-01-30T10:38:31;51917.06;;;-142.34;29.25
12951;BME280;6540;50.858;7.232;2024-01-30T10:41:01;51886.81;;;-142.34;28.93
12951;BME280;6540;50.858;7.232;2024-01-30T10:43:31;51874.72;;;-142.34;29.27
12951;BME280;6540;50.858;7.232;2024-01-30T10:46:05;51868.66;;;-142.34;31.57
12951;BME280;6540;50.858;7.232;2024-01-30T10:48:32;51888.84;;;-142.34;28.95
12951;BME280;6540;50.858;7.232;2024-01-30T10:51:01;51864.63;;;-142.34;27.95
12951;BME280;6540;50.858;7.232;2024-01-30T10:53:28;51860.59;;;-142.34;28.68
12951;BME280;6540;50.858;7.232;2024-01-30T10:55:54;51880.78;;;-142.34;28.12
12951;BME280;6540;50.858;7.232;2024-01-30T10:58:20;51878.75;;;-142.34;28.41
12951;BME280;6540;50.858;7.232;2024-01-30T11:00:47;51852.53;;;-142.34;27.99
12951;BME280;6540;50.858;7.232;2024-01-30T11:03:17;51858.56;;;-142.34;28.05
12951;BME280;6540;50.858;7.232;2024-01-30T11:05:49;51874.72;;;-142.34;28.32
12951;BME280;6540;50.858;7.232;2024-01-30T11:08:14;51870.69;;;-142.34;30.55
12951;BME280;6540;50.858;7.232;2024-01-30T11:10:47;51850.50;;;-142.34;29.02
12951;BME280;6540;50.858;7.232;2024-01-30T11:13:15;51854.53;;;-142.34;28.83
12951;BME280;6540;50.858;7.232;2024-01-30T11:15:41;51858.56;;;-142.34;27.82
12951;BME280;6540;50.858;7.232;2024-01-30T11:18:06;51840.41;;;-142.34;27.65
12951;BME280;6540;50.858;7.232;2024-01-30T11:20:32;51810.16;;;-142.34;29.17
12951;BME280;6540;50.858;7.232;2024-01-30T11:22:59;51854.53;;;-142.34;28.55
12951;BME280;6540;50.858;7.232;2024-01-30T11:25:25;51850.50;;;-142.34;28.10
12951;BME280;6540;50.858;7.232;2024-01-30T11:27:55;51834.38;;;-142.34;28.02
12951;BME280;6540;50.858;7.232;2024-01-30T11:30:21;51830.34;;;-142.34;28.49
12951;BME280;6540;50.858;7.232;2024-01-30T11:33:04;51826.31;;;-142.34;27.65
12951;BME280;6540;50.858;7.232;2024-01-30T11:35:40;51854.53;;;-142.34;28.39
12951;BME280;6540;50.858;7.232;2024-01-30T11:38:15;51836.38;;;-142.34;28.54
12951;BME280;6540;50.858;7.232;2024-01-30T11:40:41;51862.63;;;-142.34;28.17
12951;BME280;6540;50.858;7.232;2024-01-30T11:43:08;51846.47;;;-142.34;27.78
12951;BME280;6540;50.858;7.232;2024-01-30T11:45:35;51826.31;;;-142.34;28.60
12951;BME280;6540;50.858;7.232;2024-01-30T11:48:02;51826.31;;;-142.34;28.38
12951;BME280;6540;50.858;7.232;2024-01-30T11:50:35;51806.13;;;-142.34;28.17
12951;BME280;6540;50.858;7.232;2024-01-30T11:53:01;51802.09;;;-142.34;28.59
12951;BME280;6540;50.858;7.232;2024-01-30T11:55:28;51818.22;;;-142.34;28.07
12951;BME280;6540;50.858;7.232;2024-01-30T11:57:57;51832.34;;;-142.34;27.93
12951;BME280;6540;50.858;7.232;2024-01-30T12:00:24;51808.16;;;-142.34;27.45
12951;BME280;6540;50.858;7.232;2024-01-30T12:02:50;51818.22;;;-142.34;28.00
12951;BME280;6540;50.858;7.232;2024-01-30T12:05:19;51796.03;;;-142.34;27.69
12951;BME280;6540;50.858;7.232;2024-01-30T12:07:45;51842.44;;;-142.34;27.68
12951;BME280;6540;50.858;7.232;2024-01-30T12:10:12;51826.31;;;-142.34;27.02
12951;BME280;6540;50.858;7.232;2024-01-30T12:12:39;51794.03;;;-142.34;27.45
12951;BME280;6540;50.858;7.232;2024-01-30T12:15:06;51836.38;;;-142.34;28.63
12951;BME280;6540;50.858;7.232;2024-01-30T12:17:33;51842.44;;;-142.34;27.81
12951;BME280;6540;50.858;7.232;2024-01-30T12:20:08;51830.34;;;-142.34;28.27
12951;BME280;6540;50.858;7.232;2024-01-30T12:22:39;51798.06;;;-142.34;27.96
12951;BME280;6540;50.858;7.232;2024-01-30T12:25:08;51830.34;;;-142.34;27.95
12951;BME280;6540;50.858;7.232;2024-01-30T12:27:34;51810.16;;;-142.34;27.60
12951;BME280;6540;50.858;7.232;2024-01-30T12:29:59;51820.25;;;-142.34;27.78
12951;BME280;6540;50.858;7.232;2024-01-30T12:32:24;51814.19;;;-142.34;27.05
12951;BME280;6540;50.858;7.232;2024-01-30T12:34:50;51824.28;;;-142.34;27.67
12951;BME280;6540;50.858;7.232;2024-01-30T12:37:15;51790.00;;;-142.34;27.36
12951;BME280;6540;50.858;7.232;2024-01-30T12:39:47;51842.44;;;-142.34;27.64
12951;BME280;6540;50.858;7.232;2024-01-30T12:42:13;51773.84;;;-142.34;26.90
12951;BME280;6540;50.858;7.232;2024-01-30T12:44:38;51806.13;;;-142.34;26.97
12951;BME280;6540;50.858;7.232;2024-01-30T12:47:04;51816.22;;;-142.34;26.95